sensor_id;sensor_type;location;lat;lon;timestamp;temperature;humidity
21037;DHT22;10677;50.942;4.028;2022-10-17T00:01:01;16.30;99.90
21037;DHT22;10677;50.942;4.028;2022-10-17T00:03:28;16.30;99.90
21037;DHT22;10677;50.942;4.028;2022-10-17T00:05:54;16.30;99.90
21037;DHT22;10677;50.942;4.028;2022-10-17T00:08:19;16.20;99.90
21037;DHT22;10677;50.942;4.028;2022-10-17T00:10:58;16.20;99.90
21037;DHT22;10677;50.942;4.028;2022-10-17T00:13:24;16.30;99.90
21037;DHT22;10677;50.942;4.028;2022-10-17T00:15:50;16.50;99.90
21037;DHT22;10677;50.942;4.028;2022-10-17T00:18:16;16.60;99.90
21037;DHT22;10677;50.942;4.028;2022-10-17T00:20:42;16.60;99.90
21037;DHT22;10677;50.942;4.028;2022-10-17T00:23:07;16.60;99.90
21037;DHT22;10677;50.942;4.028;2022-10-17T00:25:33;16.50;99.90
21037;DHT22;10677;50.942;4.028;2022-10-17T00:27:59;16.50;99.90
21037;DHT22;10677;50.942;4.028;2022-10-17T00:30:24;16.40;99.90
21037;DHT22;10677;50.942;4.028;2022-10-17T00:32:50;16.40;99.90
21037;DHT22;10677;50.942;4.028;2022-10-17T00:35:16;16.30;99.90
21037;DHT22;10677;50.942;4.028;2022-10-17T00:37:41;16.30;99.90
21037;DHT22;10677;50.942;4.028;2022-10-17T00:40:08;16.30;99.90
21037;DHT22;10677;50.942;4.028;2022-10-17T00:42:34;16.30;99.90
21037;DHT22;10677;50.942;4.028;2022-10-17T00:45:13;16.30;99.90
21037;DHT22;10677;50.942;4.028;2022-10-17T00:47:39;16.40;99.90
21037;DHT22;10677;50.942;4.028;2022-10-17T00:50:06;16.40;99.90
21037;DHT22;10677;50.942;4.028;2022-10-17T00:52:32;16.40;99.90
21037;DHT22;10677;50.942;4.028;2022-10-17T00:55:02;16.40;99.90
21037;DHT22;10677;50.942;4.028;2022-10-17T00:57:30;16.40;99.90
21037;DHT22;10677;50.942;4.028;2022-10-17T00:59:58;16.40;99.90
21037;DHT22;10677;50.942;4.028;2022-10-17T01:02:24;16.40;99.90
21037;DHT22;10677;50.942;4.028;2022-10-17T01:04:51;16.40;99.90
21037;DHT22;10677;50.942;4.028;2022-10-17T01:07:19;16.40;99.90
21037;DHT22;10677;50.942;4.028;2022-10-17T01:09:45;16.40;99.90
21037;DHT22;10677;50.942;4.028;2022-10-17T01:12:59;16.40;99.90
21037;DHT22;10677;50.942;4.028;2022-10-17T01:15:24;16.40;99.90
21037;DHT22;10677;50.942;4.028;2022-10-17T01:26:13;16.40;99.90
21037;DHT22;10677;50.942;4.028;2022-10-17T01:34:36;16.50;99.90
21037;DHT22;10677;50.942;4.028;2022-10-17T01:37:26;16.50;99.90
21037;DHT22;10677;50.942;4.028;2022-10-17T01:47:45;16.60;99.90
21037;DHT22;10677;50.942;4.028;2022-10-17T01:50:17;16.70;99.90
21037;DHT22;10677;50.942;4.028;2022-10-17T01:52:47;16.70;99.90
21037;DHT22;10677;50.942;4.028;2022-10-17T01:55:22;16.80;99.90
21037;DHT22;10677;50.942;4.028;2022-10-17T01:57:52;16.80;99.90
21037;DHT22;10677;50.942;4.028;2022-10-17T02:00:23;16.80;99.90
21037;DHT22;10677;50.942;4.028;2022-10-17T02:03:00;16.70;99.90
21037;DHT22;10677;50.942;4.028;2022-10-17T02:05:32;16.80;99.90
21037;DHT22;10677;50.942;4.028;2022-10-17T02:08:00;16.80;99.90
21037;DHT22;10677;50.942;4.028;2022-10-17T02:10:36;16.80;99.90
21037;DHT22;10677;50.942;4.028;2022-10-17T02:13:05;16.80;99.90
21037;DHT22;10677;50.942;4.028;2022-10-17T02:19:05;16.80;99.90
21037;DHT22;10677;50.942;4.028;2022-10-17T02:21:23;16.80;99.90
21037;DHT22;10677;50.942;4.028;2022-10-17T02:26:39;16.90;99.90
21037;DHT22;10677;50.942;4.028;2022-10-17T02:29:14;16.90;99.90
21037;DHT22;10677;50.942;4.028;2022-10-17T02:32:07;16.90;99.90
21037;DHT22;10677;50.942;4.028;2022-10-17T02:34:43;17.00;99.90
21037;DHT22;10677;50.942;4.028;2022-10-17T02:37:14;17.00;99.90
21037;DHT22;10677;50.942;4.028;2022-10-17T02:39:41;17.00;99.90
21037;DHT22;10677;50.942;4.028;2022-10-17T02:42:10;17.00;99.90
21037;DHT22;10677;50.942;4.028;2022-10-17T02:44:38;17.00;99.90
21037;DHT22;10677;50.942;4.028;2022-10-17T02:50:07;17.00;99.90
21037;DHT22;10677;50.942;4.028;2022-10-17T02:55:15;17.20;99.90
21037;DHT22;10677;50.942;4.028;2022-10-17T02:57:48;17.30;99.90
21037;DHT22;10677;50.942;4.028;2022-10-17T03:00:16;17.40;99.90
21037;DHT22;10677;50.942;4.028;2022-10-17T03:02:48;17.40;99.90
21037;DHT22;10677;50.942;4.028;2022-10-17T03:05:23;17.50;99.90
21037;DHT22;10677;50.942;4.028;2022-10-17T03:07:50;17.50;99.90
21037;DHT22;10677;50.942;4.028;2022-10-17T03:10:15;17.60;99.90
21037;DHT22;10677;50.942;4.028;2022-10-17T03:12:41;17.60;99.90
21037;DHT22;10677;50.942;4.028;2022-10-17T03:15:07;17.70;99.90
21037;DHT22;10677;50.942;4.028;2022-10-17T03:17:33;17.80;99.90
21037;DHT22;10677;50.942;4.028;2022-10-17T03:19:59;17.80;99.90
21037;DHT22;10677;50.942;4.028;2022-10-17T03:22:24;17.90;99.90
21037;DHT22;10677;50.942;4.028;2022-10-17T03:24:50;17.90;99.90
21037;DHT22;10677;50.942;4.028;2022-10-17T03:27:16;18.00;99.90
21037;DHT22;10677;50.942;4.028;2022-10-17T03:29:41;18.00;99.90
21037;DHT22;10677;50.942;4.028;2022-10-17T03:32:07;18.10;99.90
21037;DHT22;10677;50.942;4.028;2022-10-17T03:34:33;18.10;99.90
21037;DHT22;10677;50.942;4.028;2022-10-17T03:36:58;18.20;99.90
21037;DHT22;10677;50.942;4.028;2022-10-17T03:39:24;18.10;99.90
21037;DHT22;10677;50.942;4.028;2022-10-17T03:41:50;18.10;99.90
21037;DHT22;10677;50.942;4.028;2022-10-17T03:44:15;18.10;99.90
21037;DHT22;10677;50.942;4.028;2022-10-17T03:46:41;18.10;99.90
21037;DHT22;10677;50.942;4.028;2022-10-17T03:49:08;18.10;99.90
21037;DHT22;10677;50.942;4.028;2022-10-17T03:51:34;18.20;99.90
21037;DHT22;10677;50.942;4.028;2022-10-17T03:54:00;18.30;99.90
21037;DHT22;10677;50.942;4.028;2022-10-17T03:56:26;18.20;99.90
21037;DHT22;10677;50.942;4.028;2022-10-17T03:58:53;18.30;99.90
21037;DHT22;10677;50.942;4.028;2022-10-17T04:01:19;18.20;99.90
21037;DHT22;10677;50.942;4.028;2022-10-17T04:03:51;18.20;99.90
21037;DHT22;10677;50.942;4.028;2022-10-17T04:06:17;18.10;99.90
21037;DHT22;10677;50.942;4.028;2022-10-17T04:08:42;18.10;99.90
21037;DHT22;10677;50.942;4.028;2022-10-17T04:11:12;18.20;99.90
21037;DHT22;10677;50.942;4.028;2022-10-17T04:13:38;18.30;99.90
21037;DHT22;10677;50.942;4.028;2022-10-17T04:16:06;18.20;99.90
21037;DHT22;10677;50.942;4.028;2022-10-17T04:18:32;18.30;99.90
21037;DHT22;10677;50.942;4.028;2022-10-17T04:21:00;18.30;99.90
21037;DHT22;10677;50.942;4.028;2022-10-17T04:23:27;18.30;99.90
21037;DHT22;10677;50.942;4.028;2022-10-17T04:25:57;18.20;99.90
21037;DHT22;10677;50.942;4.028;2022-10-17T04:28:23;18.10;99.90
21037;DHT22;10677;50.942;4.028;2022-10-17T04:31:16;18.10;99.90
21037;DHT22;10677;50.942;4.028;2022-10-17T04:33:42;18.00;99.90
21037;DHT22;10677;50.942;4.028;2022-10-17T04:36:13;18.00;99.90
21037;DHT22;10677;50.942;4.028;2022-10-17T04:38:39;18.00;99.90
21037;DHT22;10677;50.942;4.028;2022-10-17T04:41:07;18.00;99.90
21037;DHT22;10677;50.942;4.028;2022-10-17T04:43:35;18.10;99.90
21037;DHT22;10677;50.942;4.028;2022-10-17T04:46:04;18.10;99.90
21037;DHT22;10677;50.942;4.028;2022-10-17T04:48:31;18.10;99.90
21037;DHT22;10677;50.942;4.028;2022-10-17T04:50:58;18.00;99.90
21037;DHT22;10677;50.942;4.028;2022-10-17T04:53:25;18.00;99.90
21037;DHT22;10677;50.942;4.028;2022-10-17T04:55:52;18.00;99.90
21037;DHT22;10677;50.942;4.028;2022-10-17T04:58:18;18.00;99.90
21037;DHT22;10677;50.942;4.028;2022-10-17T05:00:44;18.10;99.90
21037;DHT22;10677;50.942;4.028;2022-10-17T05:03:10;18.10;99.90
21037;DHT22;10677;50.942;4.028;2022-10-17T05:05:40;18.00;99.90
21037;DHT22;10677;50.942;4.028;2022-10-17T05:08:07;18.00;99.90
21037;DHT22;10677;50.942;4.028;2022-10-17T05:10:41;18.00;99.90
21037;DHT22;10677;50.942;4.028;2022-10-17T05:13:07;18.00;99.90
21037;DHT22;10677;50.942;4.028;2022-10-17T05:15:33;18.00;99.90
21037;DHT22;10677;50.942;4.028;2022-10-17T05:17:59;18.00;99.90
21037;DHT22;10677;50.942;4.028;2022-10-17T05:20:25;18.00;99.90
21037;DHT22;10677;50.942;4.028;2022-10-17T05:22:51;18.10;99.90
21037;DHT22;10677;50.942;4.028;2022-10-17T05:25:17;18.10;99.90
21037;DHT22;10677;50.942;4.028;2022-10-17T05:27:42;18.10;99.90
21037;DHT22;10677;50.942;4.028;2022-10-17T05:30:08;18.20;99.90
21037;DHT22;10677;50.942;4.028;2022-10-17T05:32:34;18.20;99.90
21037;DHT22;10677;50.942;4.028;2022-10-17T05:35:00;18.20;99.90
21037;DHT22;10677;50.942;4.028;2022-10-17T05:37:28;18.10;99.90
21037;DHT22;10677;50.942;4.028;2022-10-17T05:39:54;18.10;99.90
21037;DHT22;10677;50.942;4.028;2022-10-17T05:42:20;18.20;99.90
21037;DHT22;10677;50.942;4.028;2022-10-17T05:44:45;18.20;99.90
21037;DHT22;10677;50.942;4.028;2022-10-17T05:47:11;18.30;99.90
21037;DHT22;10677;50.942;4.028;2022-10-17T05:49:37;18.30;99.90
21037;DHT22;10677;50.942;4.028;2022-10-17T05:52:02;18.30;99.90
21037;DHT22;10677;50.942;4.028;2022-10-17T05:54:28;18.30;99.90
21037;DHT22;10677;50.942;4.028;2022-10-17T05:56:54;18.30;99.90
21037;DHT22;10677;50.942;4.028;2022-10-17T05:59:20;18.30;99.90
21037;DHT22;10677;50.942;4.028;2022-10-17T06:01:46;18.30;99.90
21037;DHT22;10677;50.942;4.028;2022-10-17T06:04:12;18.30;99.90
21037;DHT22;10677;50.942;4.028;2022-10-17T06:06:39;18.20;99.90
21037;DHT22;10677;50.942;4.028;2022-10-17T06:09:06;18.20;99.90
21037;DHT22;10677;50.942;4.028;2022-10-17T06:11:33;18.20;99.90
21037;DHT22;10677;50.942;4.028;2022-10-17T06:13:58;18.30;99.90
21037;DHT22;10677;50.942;4.028;2022-10-17T06:16:24;18.30;99.90
21037;DHT22;10677;50.942;4.028;2022-10-17T06:18:50;18.30;99.90
21037;DHT22;10677;50.942;4.028;2022-10-17T06:21:22;18.30;99.90
21037;DHT22;10677;50.942;4.028;2022-10-17T06:23:50;18.30;99.90
21037;DHT22;10677;50.942;4.028;2022-10-17T06:26:15;18.30;99.90
21037;DHT22;10677;50.942;4.028;2022-10-17T06:28:43;18.30;99.90
21037;DHT22;10677;50.942;4.028;2022-10-17T06:31:11;18.30;99.90
21037;DHT22;10677;50.942;4.028;2022-10-17T06:33:38;18.20;99.90
21037;DHT22;10677;50.942;4.028;2022-10-17T06:36:05;18.20;99.90
21037;DHT22;10677;50.942;4.028;2022-10-17T06:38:33;18.10;99.90
21037;DHT22;10677;50.942;4.028;2022-10-17T06:41:10;18.00;99.90
21037;DHT22;10677;50.942;4.028;2022-10-17T06:43:41;17.90;99.90
21037;DHT22;10677;50.942;4.028;2022-10-17T06:46:12;17.80;99.90
21037;DHT22;10677;50.942;4.028;2022-10-17T06:48:38;17.80;99.90
21037;DHT22;10677;50.942;4.028;2022-10-17T06:51:06;17.70;99.90
21037;DHT22;10677;50.942;4.028;2022-10-17T06:53:34;17.70;99.90
21037;DHT22;10677;50.942;4.028;2022-10-17T06:56:00;17.70;99.90
21037;DHT22;10677;50.942;4.028;2022-10-17T06:58:29;17.70;99.90
21037;DHT22;10677;50.942;4.028;2022-10-17T07:01:04;17.70;99.90
21037;DHT22;10677;50.942;4.028;2022-10-17T07:03:31;17.80;99.90
21037;DHT22;10677;50.942;4.028;2022-10-17T07:05:57;17.80;99.90
21037;DHT22;10677;50.942;4.028;2022-10-17T07:08:23;17.70;99.90
21037;DHT22;10677;50.942;4.028;2022-10-17T07:10:49;17.60;99.90
21037;DHT22;10677;50.942;4.028;2022-10-17T07:13:16;17.50;99.90
21037;DHT22;10677;50.942;4.028;2022-10-17T07:15:42;17.40;99.90
21037;DHT22;10677;50.942;4.028;2022-10-17T07:18:09;17.40;99.90
21037;DHT22;10677;50.942;4.028;2022-10-17T07:20:36;17.30;99.90
21037;DHT22;10677;50.942;4.028;2022-10-17T07:23:02;17.30;99.90
21037;DHT22;10677;50.942;4.028;2022-10-17T07:25:27;17.20;99.90
21037;DHT22;10677;50.942;4.028;2022-10-17T07:27:53;17.30;99.90
21037;DHT22;10677;50.942;4.028;2022-10-17T07:30:21;17.30;99.90
21037;DHT22;10677;50.942;4.028;2022-10-17T07:32:47;17.30;99.90
21037;DHT22;10677;50.942;4.028;2022-10-17T07:35:13;17.20;99.90
21037;DHT22;10677;50.942;4.028;2022-10-17T07:37:39;17.20;99.90
21037;DHT22;10677;50.942;4.028;2022-10-17T07:40:08;17.30;99.90
21037;DHT22;10677;50.942;4.028;2022-10-17T07:42:35;17.40;99.90
21037;DHT22;10677;50.942;4.028;2022-10-17T07:45:02;17.50;99.90
21037;DHT22;10677;50.942;4.028;2022-10-17T07:47:27;17.50;99.90
21037;DHT22;10677;50.942;4.028;2022-10-17T07:49:55;17.50;99.90
21037;DHT22;10677;50.942;4.028;2022-10-17T07:52:21;17.50;99.90
21037;DHT22;10677;50.942;4.028;2022-10-17T07:54:47;17.50;99.90
21037;DHT22;10677;50.942;4.028;2022-10-17T07:57:12;17.60;99.90
21037;DHT22;10677;50.942;4.028;2022-10-17T07:59:38;17.50;99.90
21037;DHT22;10677;50.942;4.028;2022-10-17T08:02:05;17.50;99.90
21037;DHT22;10677;50.942;4.028;2022-10-17T08:04:33;17.50;99.90
21037;DHT22;10677;50.942;4.028;2022-10-17T08:07:01;17.40;99.90
21037;DHT22;10677;50.942;4.028;2022-10-17T08:09:27;17.30;99.90
21037;DHT22;10677;50.942;4.028;2022-10-17T08:11:52;17.30;99.90
21037;DHT22;10677;50.942;4.028;2022-10-17T08:14:18;17.30;99.90
21037;DHT22;10677;50.942;4.028;2022-10-17T08:16:45;17.30;99.90
21037;DHT22;10677;50.942;4.028;2022-10-17T08:19:10;17.30;99.90
21037;DHT22;10677;50.942;4.028;2022-10-17T08:21:37;17.30;99.90
21037;DHT22;10677;50.942;4.028;2022-10-17T08:24:04;17.40;99.90
21037;DHT22;10677;50.942;4.028;2022-10-17T08:26:29;17.40;99.90
21037;DHT22;10677;50.942;4.028;2022-10-17T08:28:55;17.40;99.90
21037;DHT22;10677;50.942;4.028;2022-10-17T08:31:21;17.40;99.90
21037;DHT22;10677;50.942;4.028;2022-10-17T08:33:48;17.30;99.90
21037;DHT22;10677;50.942;4.028;2022-10-17T08:36:17;17.30;99.90
21037;DHT22;10677;50.942;4.028;2022-10-17T08:38:44;17.30;99.90
21037;DHT22;10677;50.942;4.028;2022-10-17T08:41:36;17.30;99.90
21037;DHT22;10677;50.942;4.028;2022-10-17T08:46:40;17.30;99.90
21037;DHT22;10677;50.942;4.028;2022-10-17T08:49:25;17.50;99.90
21037;DHT22;10677;50.942;4.028;2022-10-17T08:51:57;17.50;99.90
21037;DHT22;10677;50.942;4.028;2022-10-17T08:54:42;17.60;99.90
21037;DHT22;10677;50.942;4.028;2022-10-17T08:57:12;17.60;99.90
21037;DHT22;10677;50.942;4.028;2022-10-17T08:59:38;17.70;99.90
21037;DHT22;10677;50.942;4.028;2022-10-17T09:10:57;17.80;99.90
21037;DHT22;10677;50.942;4.028;2022-10-17T09:13:34;17.90;99.90
21037;DHT22;10677;50.942;4.028;2022-10-17T09:19:20;18.00;99.90
21037;DHT22;10677;50.942;4.028;2022-10-17T09:22:15;18.10;99.90
21037;DHT22;10677;50.942;4.028;2022-10-17T09:24:56;18.20;99.90
21037;DHT22;10677;50.942;4.028;2022-10-17T09:27:30;18.20;99.90
21037;DHT22;10677;50.942;4.028;2022-10-17T09:32:50;18.40;99.90
21037;DHT22;10677;50.942;4.028;2022-10-17T09:35:16;18.40;99.90
21037;DHT22;10677;50.942;4.028;2022-10-17T09:37:43;18.50;99.90
21037;DHT22;10677;50.942;4.028;2022-10-17T09:40:21;18.50;99.90
21037;DHT22;10677;50.942;4.028;2022-10-17T09:42:50;18.60;99.90
21037;DHT22;10677;50.942;4.028;2022-10-17T09:45:19;18.60;99.90
21037;DHT22;10677;50.942;4.028;2022-10-17T09:50:34;18.80;99.90
21037;DHT22;10677;50.942;4.028;2022-10-17T09:53:55;18.70;99.90
21037;DHT22;10677;50.942;4.028;2022-10-17T09:56:07;18.60;99.90
21037;DHT22;10677;50.942;4.028;2022-10-17T09:58:48;18.60;99.90
21037;DHT22;10677;50.942;4.028;2022-10-17T10:01:21;18.50;99.90
21037;DHT22;10677;50.942;4.028;2022-10-17T10:04:14;18.50;99.90
21037;DHT22;10677;50.942;4.028;2022-10-17T10:09:27;18.40;99.90
21037;DHT22;10677;50.942;4.028;2022-10-17T10:11:56;18.50;99.90
21037;DHT22;10677;50.942;4.028;2022-10-17T10:14:33;18.50;99.90
21037;DHT22;10677;50.942;4.028;2022-10-17T10:17:01;18.40;99.90
21037;DHT22;10677;50.942;4.028;2022-10-17T10:19:36;18.40;99.90
21037;DHT22;10677;50.942;4.028;2022-10-17T10:24:28;18.30;99.90
21037;DHT22;10677;50.942;4.028;2022-10-17T10:27:00;18.30;99.90
21037;DHT22;10677;50.942;4.028;2022-10-17T10:29:31;18.30;99.90
21037;DHT22;10677;50.942;4.028;2022-10-17T10:32:24;18.30;99.90
21037;DHT22;10677;50.942;4.028;2022-10-17T10:34:58;18.30;99.90
21037;DHT22;10677;50.942;4.028;2022-10-17T10:37:37;18.30;99.90
21037;DHT22;10677;50.942;4.028;2022-10-17T10:40:19;18.40;99.90
21037;DHT22;10677;50.942;4.028;2022-10-17T10:42:56;18.50;99.90
21037;DHT22;10677;50.942;4.028;2022-10-17T10:48:01;18.80;99.90
21037;DHT22;10677;50.942;4.028;2022-10-17T11:01:04;19.90;99.90
21037;DHT22;10677;50.942;4.028;2022-10-17T11:03:40;19.80;99.90
21037;DHT22;10677;50.942;4.028;2022-10-17T11:06:18;19.80;99.90
21037;DHT22;10677;50.942;4.028;2022-10-17T11:09:03;19.70;99.90
21037;DHT22;10677;50.942;4.028;2022-10-17T11:11:34;19.60;99.90
21037;DHT22;10677;50.942;4.028;2022-10-17T11:17:04;19.50;99.90
21037;DHT22;10677;50.942;4.028;2022-10-17T11:22:37;19.40;99.90
21037;DHT22;10677;50.942;4.028;2022-10-17T11:27:49;19.40;99.90
21037;DHT22;10677;50.942;4.028;2022-10-17T11:30:16;19.50;99.90
21037;DHT22;10677;50.942;4.028;2022-10-17T11:32:49;19.50;99.90
21037;DHT22;10677;50.942;4.028;2022-10-17T11:35:33;19.50;99.90
21037;DHT22;10677;50.942;4.028;2022-10-17T11:40:52;19.60;99.90
21037;DHT22;10677;50.942;4.028;2022-10-17T11:46:00;19.70;99.90
21037;DHT22;10677;50.942;4.028;2022-10-17T11:48:36;19.70;99.90
21037;DHT22;10677;50.942;4.028;2022-10-17T11:51:11;19.70;99.90
21037;DHT22;10677;50.942;4.028;2022-10-17T11:53:50;19.70;99.90
21037;DHT22;10677;50.942;4.028;2022-10-17T11:56:36;19.80;99.90
21037;DHT22;10677;50.942;4.028;2022-10-17T11:59:32;19.70;99.90
21037;DHT22;10677;50.942;4.028;2022-10-17T12:02:22;19.80;99.90
21037;DHT22;10677;50.942;4.028;2022-10-17T12:10:32;19.90;99.90
21037;DHT22;10677;50.942;4.028;2022-10-17T12:18:44;19.80;99.90
21037;DHT22;10677;50.942;4.028;2022-10-17T12:21:11;19.80;99.90
21037;DHT22;10677;50.942;4.028;2022-10-17T12:23:37;19.70;99.90
21037;DHT22;10677;50.942;4.028;2022-10-17T12:26:07;19.70;99.90
21037;DHT22;10677;50.942;4.028;2022-10-17T12:31:08;19.80;99.90
21037;DHT22;10677;50.942;4.028;2022-10-17T12:38:46;20.00;99.90
21037;DHT22;10677;50.942;4.028;2022-10-17T12:41:12;19.90;99.90
21037;DHT22;10677;50.942;4.028;2022-10-17T12:43:52;19.90;99.90
21037;DHT22;10677;50.942;4.028;2022-10-17T12:55:04;19.90;99.90
21037;DHT22;10677;50.942;4.028;2022-10-17T13:03:29;20.00;99.90
21037;DHT22;10677;50.942;4.028;2022-10-17T13:06:01;20.00;99.90
21037;DHT22;10677;50.942;4.028;2022-10-17T13:08:28;20.10;99.90
21037;DHT22;10677;50.942;4.028;2022-10-17T13:10:55;20.20;99.90
21037;DHT22;10677;50.942;4.028;2022-10-17T13:16:08;20.50;99.90
21037;DHT22;10677;50.942;4.028;2022-10-17T13:18:52;20.50;99.90
21037;DHT22;10677;50.942;4.028;2022-10-17T13:21:17;20.60;99.90
21037;DHT22;10677;50.942;4.028;2022-10-17T13:23:43;20.70;99.90
21037;DHT22;10677;50.942;4.028;2022-10-17T13:26:14;20.70;99.90
21037;DHT22;10677;50.942;4.028;2022-10-17T13:28:41;20.70;99.90
21037;DHT22;10677;50.942;4.028;2022-10-17T13:31:26;20.80;99.90
21037;DHT22;10677;50.942;4.028;2022-10-17T13:33:57;20.70;99.90
21037;DHT22;10677;50.942;4.028;2022-10-17T13:36:23;20.70;99.90
21037;DHT22;10677;50.942;4.028;2022-10-17T13:38:50;20.70;99.90
21037;DHT22;10677;50.942;4.028;2022-10-17T13:41:17;20.80;99.90
21037;DHT22;10677;50.942;4.028;2022-10-17T13:43:46;20.80;99.90
21037;DHT22;10677;50.942;4.028;2022-10-17T13:46:32;20.90;99.90
21037;DHT22;10677;50.942;4.028;2022-10-17T13:51:53;20.90;99.90
21037;DHT22;10677;50.942;4.028;2022-10-17T13:54:36;21.00;99.90
21037;DHT22;10677;50.942;4.028;2022-10-17T13:57:04;21.00;99.90
21037;DHT22;10677;50.942;4.028;2022-10-17T13:59:40;21.10;99.90
21037;DHT22;10677;50.942;4.028;2022-10-17T14:02:15;21.20;99.90
21037;DHT22;10677;50.942;4.028;2022-10-17T14:04:41;21.20;99.90
21037;DHT22;10677;50.942;4.028;2022-10-17T14:07:20;21.10;99.90
21037;DHT22;10677;50.942;4.028;2022-10-17T14:09:48;21.20;99.90
21037;DHT22;10677;50.942;4.028;2022-10-17T14:12:14;21.20;99.90
21037;DHT22;10677;50.942;4.028;2022-10-17T14:14:47;21.30;99.90
21037;DHT22;10677;50.942;4.028;2022-10-17T14:17:33;21.20;99.90
21037;DHT22;10677;50.942;4.028;2022-10-17T14:20:03;21.20;99.90
21037;DHT22;10677;50.942;4.028;2022-10-17T14:22:33;21.20;99.90
21037;DHT22;10677;50.942;4.028;2022-10-17T14:24:59;21.20;99.90
21037;DHT22;10677;50.942;4.028;2022-10-17T14:30:01;21.20;99.90
21037;DHT22;10677;50.942;4.028;2022-10-17T14:32:33;21.10;99.90
21037;DHT22;10677;50.942;4.028;2022-10-17T14:35:02;21.00;99.90
21037;DHT22;10677;50.942;4.028;2022-10-17T14:37:40;20.70;99.90
21037;DHT22;10677;50.942;4.028;2022-10-17T14:40:18;20.60;99.90
21037;DHT22;10677;50.942;4.028;2022-10-17T14:42:44;20.50;99.90
21037;DHT22;10677;50.942;4.028;2022-10-17T14:45:23;20.50;99.90
21037;DHT22;10677;50.942;4.028;2022-10-17T14:47:51;20.60;99.90
21037;DHT22;10677;50.942;4.028;2022-10-17T14:55:39;20.50;99.90
21037;DHT22;10677;50.942;4.028;2022-10-17T14:58:21;20.50;99.90
21037;DHT22;10677;50.942;4.028;2022-10-17T15:00:48;20.40;99.90
21037;DHT22;10677;50.942;4.028;2022-10-17T15:03:14;20.40;99.90
21037;DHT22;10677;50.942;4.028;2022-10-17T15:05:40;20.40;99.90
21037;DHT22;10677;50.942;4.028;2022-10-17T15:08:13;20.40;99.90
21037;DHT22;10677;50.942;4.028;2022-10-17T15:10:39;20.50;99.90
21037;DHT22;10677;50.942;4.028;2022-10-17T15:13:09;20.40;99.90
21037;DHT22;10677;50.942;4.028;2022-10-17T15:15:36;20.30;99.90
21037;DHT22;10677;50.942;4.028;2022-10-17T15:18:02;20.20;99.90
21037;DHT22;10677;50.942;4.028;2022-10-17T15:20:28;20.10;99.90
21037;DHT22;10677;50.942;4.028;2022-10-17T15:22:56;20.00;99.90
21037;DHT22;10677;50.942;4.028;2022-10-17T15:25:23;19.90;99.90
21037;DHT22;10677;50.942;4.028;2022-10-17T15:27:49;19.90;99.90
21037;DHT22;10677;50.942;4.028;2022-10-17T15:30:35;19.80;99.90
21037;DHT22;10677;50.942;4.028;2022-10-17T15:33:01;19.80;99.90
21037;DHT22;10677;50.942;4.028;2022-10-17T15:35:27;19.80;99.90
21037;DHT22;10677;50.942;4.028;2022-10-17T15:37:53;19.80;99.90
21037;DHT22;10677;50.942;4.028;2022-10-17T15:40:22;19.70;99.90
21037;DHT22;10677;50.942;4.028;2022-10-17T15:42:48;19.70;99.90
21037;DHT22;10677;50.942;4.028;2022-10-17T15:45:16;19.70;99.90
21037;DHT22;10677;50.942;4.028;2022-10-17T15:47:49;19.70;99.90
21037;DHT22;10677;50.942;4.028;2022-10-17T15:50:16;19.70;99.90
21037;DHT22;10677;50.942;4.028;2022-10-17T15:52:42;19.70;99.90
21037;DHT22;10677;50.942;4.028;2022-10-17T15:55:09;19.70;99.90
21037;DHT22;10677;50.942;4.028;2022-10-17T15:57:38;19.70;99.90
21037;DHT22;10677;50.942;4.028;2022-10-17T16:00:06;19.70;99.90
21037;DHT22;10677;50.942;4.028;2022-10-17T16:02:32;19.70;99.90
21037;DHT22;10677;50.942;4.028;2022-10-17T16:04:58;19.60;99.90
21037;DHT22;10677;50.942;4.028;2022-10-17T16:07:24;19.60;99.90
21037;DHT22;10677;50.942;4.028;2022-10-17T16:09:50;19.50;99.90
21037;DHT22;10677;50.942;4.028;2022-10-17T16:12:27;19.50;99.90
21037;DHT22;10677;50.942;4.028;2022-10-17T16:14:53;19.40;99.90
21037;DHT22;10677;50.942;4.028;2022-10-17T16:17:19;19.30;99.90
21037;DHT22;10677;50.942;4.028;2022-10-17T16:19:44;19.40;99.90
21037;DHT22;10677;50.942;4.028;2022-10-17T16:22:33;19.40;99.90
21037;DHT22;10677;50.942;4.028;2022-10-17T16:25:09;19.50;99.90
21037;DHT22;10677;50.942;4.028;2022-10-17T16:27:47;19.40;99.90
21037;DHT22;10677;50.942;4.028;2022-10-17T16:30:13;19.40;99.90
21037;DHT22;10677;50.942;4.028;2022-10-17T16:32:39;19.30;99.90
21037;DHT22;10677;50.942;4.028;2022-10-17T16:35:05;19.30;99.90
21037;DHT22;10677;50.942;4.028;2022-10-17T16:37:31;19.30;99.90
21037;DHT22;10677;50.942;4.028;2022-10-17T16:39:57;19.20;99.90
21037;DHT22;10677;50.942;4.028;2022-10-17T16:42:23;19.20;99.90
21037;DHT22;10677;50.942;4.028;2022-10-17T16:44:49;19.20;99.90
21037;DHT22;10677;50.942;4.028;2022-10-17T16:47:16;19.10;99.90
21037;DHT22;10677;50.942;4.028;2022-10-17T16:49:42;19.00;99.90
21037;DHT22;10677;50.942;4.028;2022-10-17T16:52:09;18.90;99.90
21037;DHT22;10677;50.942;4.028;2022-10-17T16:54:34;18.80;99.90
21037;DHT22;10677;50.942;4.028;2022-10-17T16:57:01;18.80;99.90
21037;DHT22;10677;50.942;4.028;2022-10-17T16:59:27;18.70;99.90
21037;DHT22;10677;50.942;4.028;2022-10-17T17:01:53;18.70;99.90
21037;DHT22;10677;50.942;4.028;2022-10-17T17:04:19;18.70;99.90
21037;DHT22;10677;50.942;4.028;2022-10-17T17:06:44;18.70;99.90
21037;DHT22;10677;50.942;4.028;2022-10-17T17:09:10;18.80;99.90
21037;DHT22;10677;50.942;4.028;2022-10-17T17:11:37;18.80;99.90
21037;DHT22;10677;50.942;4.028;2022-10-17T17:14:03;18.70;99.90
21037;DHT22;10677;50.942;4.028;2022-10-17T17:16:30;18.70;99.90
21037;DHT22;10677;50.942;4.028;2022-10-17T17:19:00;18.60;99.90
21037;DHT22;10677;50.942;4.028;2022-10-17T17:21:26;18.60;99.90
21037;DHT22;10677;50.942;4.028;2022-10-17T17:23:53;18.60;99.90
21037;DHT22;10677;50.942;4.028;2022-10-17T17:26:21;18.50;99.90
21037;DHT22;10677;50.942;4.028;2022-10-17T17:28:48;18.50;99.90
21037;DHT22;10677;50.942;4.028;2022-10-17T17:31:19;18.50;99.90
21037;DHT22;10677;50.942;4.028;2022-10-17T17:33:46;18.50;99.90
21037;DHT22;10677;50.942;4.028;2022-10-17T17:36:15;18.50;99.90
21037;DHT22;10677;50.942;4.028;2022-10-17T17:38:42;18.60;99.90
21037;DHT22;10677;50.942;4.028;2022-10-17T17:41:10;18.60;99.90
21037;DHT22;10677;50.942;4.028;2022-10-17T17:43:37;18.60;99.90
21037;DHT22;10677;50.942;4.028;2022-10-17T17:46:02;18.60;99.90
21037;DHT22;10677;50.942;4.028;2022-10-17T17:48:28;18.60;99.90
21037;DHT22;10677;50.942;4.028;2022-10-17T17:50:54;18.60;99.90
21037;DHT22;10677;50.942;4.028;2022-10-17T17:53:20;18.60;99.90
21037;DHT22;10677;50.942;4.028;2022-10-17T17:55:45;18.50;99.90
21037;DHT22;10677;50.942;4.028;2022-10-17T17:58:11;18.40;99.90